Hunt Field Lander US
ICAO: KLND
IATA: LND
Category: Medium
Scheduled Services: No

Elevation: 5586 ft
TransAlt. 18000 ft.

Airport Communications:
ASOS:118.15
CTAF/UNICOM:122.8

KLND Zoom In..

Runways:

(A) RW 03 length 5007 ft width 100 ft
---- / hdg 36

(B) RW 21 length 5007 ft width 100 ft
---- / hdg 216

Location; KLND
Day. 03 / Time. 10.53 Zulu
* Altimeter: 30.14
* Temperature: 16° c. 60.8°f.
* Wind from: VRB° Speed 03 kn.
Dewpoint: 04° c.
Visibility: 10 Statute Miles.
Clouds: Clear (automated report).

KLND 031053Z AUTO VRB03KT 10SM CLR 16/04 A3014 RMK AO2 SLP130 T01610044

Going to: --> -->


Wind From VRB°
Speed 03 kn.

 
 
jpsmedia worldairports.se 2020   terms of use